sensor_id;sensor_type;location;lat;lon;timestamp;pressure;altitude;pressure_sealevel;temperature;humidity
21547;BME280;41275;51.912;4.388;2023-06-10T00:02:46;101404.09;;;30.24;30.68
21547;BME280;41275;51.912;4.388;2023-06-10T00:08:08;101402.63;;;30.15;31.13
21547;BME280;41275;51.912;4.388;2023-06-10T00:13:29;101404.00;;;30.08;31.13
21547;BME280;41275;51.912;4.388;2023-06-10T00:18:50;101403.66;;;29.98;31.55
21547;BME280;41275;51.912;4.388;2023-06-10T00:24:16;101415.19;;;29.91;31.46
21547;BME280;41275;51.912;4.388;2023-06-10T00:29:37;101413.69;;;29.81;31.63
21547;BME280;41275;51.912;4.388;2023-06-10T00:34:59;101412.25;;;29.72;31.64
21547;BME280;41275;51.912;4.388;2023-06-10T00:40:21;101417.78;;;29.63;32.03
21547;BME280;41275;51.912;4.388;2023-06-10T00:45:42;101417.44;;;29.52;32.07
21547;BME280;41275;51.912;4.388;2023-06-10T00:51:05;101422.41;;;29.38;32.27
21547;BME280;41275;51.912;4.388;2023-06-10T00:56:26;101417.31;;;29.24;32.33
21547;BME280;41275;51.912;4.388;2023-06-10T01:01:49;101423.66;;;29.16;32.51
21547;BME280;41275;51.912;4.388;2023-06-10T01:07:25;101419.91;;;29.08;32.34
21547;BME280;41275;51.912;4.388;2023-06-10T01:13:02;101421.59;;;29.01;32.58
21547;BME280;41275;51.912;4.388;2023-06-10T01:18:32;101413.78;;;28.91;32.54
21547;BME280;41275;51.912;4.388;2023-06-10T01:23:54;101421.53;;;28.89;32.46
21547;BME280;41275;51.912;4.388;2023-06-10T01:29:32;101421.72;;;28.83;32.43
21547;BME280;41275;51.912;4.388;2023-06-10T01:34:56;101429.63;;;28.76;32.23
21547;BME280;41275;51.912;4.388;2023-06-10T01:40:17;101421.53;;;28.68;32.35
21547;BME280;41275;51.912;4.388;2023-06-10T01:45:38;101422.06;;;28.61;32.81
21547;BME280;41275;51.912;4.388;2023-06-10T01:51:00;101420.69;;;28.55;32.70
21547;BME280;41275;51.912;4.388;2023-06-10T01:56:21;101425.66;;;28.53;32.87
21547;BME280;41275;51.912;4.388;2023-06-10T02:01:42;101428.03;;;28.42;32.84
21547;BME280;41275;51.912;4.388;2023-06-10T02:07:03;101431.06;;;28.41;32.89
21547;BME280;41275;51.912;4.388;2023-06-10T02:12:25;101427.72;;;28.35;33.11
21547;BME280;41275;51.912;4.388;2023-06-10T02:17:46;101418.63;;;28.31;32.90
21547;BME280;41275;51.912;4.388;2023-06-10T02:23:09;101435.97;;;28.26;33.26
21547;BME280;41275;51.912;4.388;2023-06-10T02:28:30;101431.84;;;28.20;33.48
21547;BME280;41275;51.912;4.388;2023-06-10T02:33:52;101434.41;;;28.17;33.67
21547;BME280;41275;51.912;4.388;2023-06-10T02:39:13;101432.91;;;28.07;33.40
21547;BME280;41275;51.912;4.388;2023-06-10T02:44:34;101431.03;;;27.99;33.80
21547;BME280;41275;51.912;4.388;2023-06-10T02:49:55;101432.19;;;27.89;34.11
21547;BME280;41275;51.912;4.388;2023-06-10T02:55:17;101437.47;;;27.85;34.03
21547;BME280;41275;51.912;4.388;2023-06-10T03:00:38;101434.03;;;27.76;34.08
21547;BME280;41275;51.912;4.388;2023-06-10T03:06:01;101426.03;;;27.71;34.34
21547;BME280;41275;51.912;4.388;2023-06-10T03:11:23;101432.13;;;27.68;34.00
21547;BME280;41275;51.912;4.388;2023-06-10T03:16:44;101433.25;;;27.67;34.26
21547;BME280;41275;51.912;4.388;2023-06-10T03:22:11;101435.97;;;27.58;34.01
21547;BME280;41275;51.912;4.388;2023-06-10T03:27:32;101448.00;;;27.57;34.28
21547;BME280;41275;51.912;4.388;2023-06-10T03:32:54;101447.53;;;27.55;34.20
21547;BME280;41275;51.912;4.388;2023-06-10T03:38:15;101456.19;;;27.49;34.01
21547;BME280;41275;51.912;4.388;2023-06-10T03:43:37;101456.84;;;27.46;34.14
21547;BME280;41275;51.912;4.388;2023-06-10T03:48:59;101457.31;;;27.39;34.23
21547;BME280;41275;51.912;4.388;2023-06-10T03:54:24;101468.38;;;27.34;34.02
21547;BME280;41275;51.912;4.388;2023-06-10T03:59:45;101468.06;;;27.27;33.96
21547;BME280;41275;51.912;4.388;2023-06-10T04:05:06;101473.06;;;27.25;33.92
21547;BME280;41275;51.912;4.388;2023-06-10T04:10:28;101471.31;;;27.20;33.72
21547;BME280;41275;51.912;4.388;2023-06-10T04:15:49;101467.94;;;27.14;33.72
21547;BME280;41275;51.912;4.388;2023-06-10T04:21:10;101474.50;;;27.13;33.47
21547;BME280;41275;51.912;4.388;2023-06-10T04:26:31;101484.59;;;27.13;33.46
21547;BME280;41275;51.912;4.388;2023-06-10T04:31:53;101484.59;;;27.13;33.59
21547;BME280;41275;51.912;4.388;2023-06-10T04:37:14;101490.63;;;27.10;32.95
21547;BME280;41275;51.912;4.388;2023-06-10T04:42:36;101494.16;;;27.10;33.54
21547;BME280;41275;51.912;4.388;2023-06-10T04:47:57;101490.00;;;27.13;33.45
21547;BME280;41275;51.912;4.388;2023-06-10T04:53:19;101494.47;;;27.17;33.39
21547;BME280;41275;51.912;4.388;2023-06-10T04:58:40;101500.22;;;27.25;33.30
21547;BME280;41275;51.912;4.388;2023-06-10T05:04:01;101492.69;;;27.30;33.35
21547;BME280;41275;51.912;4.388;2023-06-10T05:09:22;101495.72;;;27.37;33.44
21547;BME280;41275;51.912;4.388;2023-06-10T05:14:43;101484.16;;;27.49;33.17
21547;BME280;41275;51.912;4.388;2023-06-10T05:20:06;101494.41;;;27.52;33.15
21547;BME280;41275;51.912;4.388;2023-06-10T05:25:30;101494.06;;;27.54;33.25
21547;BME280;41275;51.912;4.388;2023-06-10T05:30:51;101493.22;;;27.62;33.21
21547;BME280;41275;51.912;4.388;2023-06-10T05:36:12;101492.09;;;27.72;33.17
21547;BME280;41275;51.912;4.388;2023-06-10T05:41:33;101497.72;;;27.75;33.50
21547;BME280;41275;51.912;4.388;2023-06-10T05:46:55;101501.66;;;27.86;33.41
21547;BME280;41275;51.912;4.388;2023-06-10T05:52:16;101502.69;;;28.03;33.18
21547;BME280;41275;51.912;4.388;2023-06-10T05:57:37;101502.78;;;28.15;33.24
21547;BME280;41275;51.912;4.388;2023-06-10T06:02:58;101500.50;;;28.26;33.03
21547;BME280;41275;51.912;4.388;2023-06-10T06:08:20;101512.88;;;28.44;32.91
21547;BME280;41275;51.912;4.388;2023-06-10T06:13:41;101507.69;;;28.51;32.66
21547;BME280;41275;51.912;4.388;2023-06-10T06:19:03;101500.72;;;28.62;32.63
21547;BME280;41275;51.912;4.388;2023-06-10T06:24:24;101497.94;;;28.71;32.92
21547;BME280;41275;51.912;4.388;2023-06-10T06:29:45;101511.28;;;28.85;32.86
21547;BME280;41275;51.912;4.388;2023-06-10T06:35:06;101497.88;;;29.01;32.54
21547;BME280;41275;51.912;4.388;2023-06-10T06:40:28;101503.34;;;29.13;32.49
21547;BME280;41275;51.912;4.388;2023-06-10T06:45:50;101507.47;;;29.31;32.08
21547;BME280;41275;51.912;4.388;2023-06-10T06:51:11;101503.91;;;29.52;32.32
21547;BME280;41275;51.912;4.388;2023-06-10T06:56:32;101515.53;;;29.73;31.79
21547;BME280;41275;51.912;4.388;2023-06-10T07:01:53;101504.50;;;29.94;31.19
21547;BME280;41275;51.912;4.388;2023-06-10T07:07:15;101515.53;;;30.10;31.41
21547;BME280;41275;51.912;4.388;2023-06-10T07:12:36;101527.19;;;30.19;31.53
21547;BME280;41275;51.912;4.388;2023-06-10T07:17:58;101525.31;;;30.48;30.65
21547;BME280;41275;51.912;4.388;2023-06-10T07:23:19;101517.19;;;30.64;30.73
21547;BME280;41275;51.912;4.388;2023-06-10T07:28:41;101534.56;;;30.84;30.33
21547;BME280;41275;51.912;4.388;2023-06-10T07:34:02;101522.34;;;30.93;30.05
21547;BME280;41275;51.912;4.388;2023-06-10T07:39:24;101525.75;;;31.18;29.93
21547;BME280;41275;51.912;4.388;2023-06-10T07:44:45;101537.81;;;31.29;29.37
21547;BME280;41275;51.912;4.388;2023-06-10T07:50:06;101529.63;;;31.45;29.14
21547;BME280;41275;51.912;4.388;2023-06-10T07:55:28;101525.66;;;31.59;28.72
21547;BME280;41275;51.912;4.388;2023-06-10T08:00:49;101524.94;;;31.77;28.73
21547;BME280;41275;51.912;4.388;2023-06-10T08:06:10;101528.94;;;31.96;28.60
21547;BME280;41275;51.912;4.388;2023-06-10T08:11:32;101534.78;;;32.30;27.81
21547;BME280;41275;51.912;4.388;2023-06-10T08:16:53;101533.78;;;32.54;27.27
21547;BME280;41275;51.912;4.388;2023-06-10T08:22:15;101525.47;;;32.89;27.26
21547;BME280;41275;51.912;4.388;2023-06-10T08:27:36;101533.63;;;32.85;26.72
21547;BME280;41275;51.912;4.388;2023-06-10T08:32:57;101538.06;;;33.09;26.35
21547;BME280;41275;51.912;4.388;2023-06-10T08:38:18;101532.81;;;33.23;25.73
21547;BME280;41275;51.912;4.388;2023-06-10T08:43:52;101544.41;;;33.36;25.07
21547;BME280;41275;51.912;4.388;2023-06-10T08:49:18;101535.69;;;33.50;25.18
21547;BME280;41275;51.912;4.388;2023-06-10T08:54:52;101536.41;;;33.70;25.10
21547;BME280;41275;51.912;4.388;2023-06-10T09:00:16;101538.94;;;33.82;24.83
21547;BME280;41275;51.912;4.388;2023-06-10T09:05:37;101541.94;;;33.96;24.49
21547;BME280;41275;51.912;4.388;2023-06-10T09:10:59;101543.59;;;34.01;24.54
21547;BME280;41275;51.912;4.388;2023-06-10T09:16:20;101542.81;;;34.27;24.13
21547;BME280;41275;51.912;4.388;2023-06-10T09:21:41;101543.16;;;34.52;23.64
21547;BME280;41275;51.912;4.388;2023-06-10T09:27:07;101538.13;;;34.58;23.28
21547;BME280;41275;51.912;4.388;2023-06-10T09:32:29;101544.69;;;34.80;22.95
21547;BME280;41275;51.912;4.388;2023-06-10T09:37:56;101544.06;;;34.97;22.80
21547;BME280;41275;51.912;4.388;2023-06-10T09:43:17;101533.41;;;35.26;22.49
21547;BME280;41275;51.912;4.388;2023-06-10T09:48:43;101534.63;;;35.32;21.93
21547;BME280;41275;51.912;4.388;2023-06-10T09:54:04;101532.91;;;35.54;21.47
21547;BME280;41275;51.912;4.388;2023-06-10T09:59:29;101537.72;;;35.68;21.38
21547;BME280;41275;51.912;4.388;2023-06-10T10:04:52;101530.78;;;35.88;21.55
21547;BME280;41275;51.912;4.388;2023-06-10T10:10:15;101530.56;;;36.11;21.68
21547;BME280;41275;51.912;4.388;2023-06-10T10:15:36;101526.97;;;36.03;21.40
21547;BME280;41275;51.912;4.388;2023-06-10T10:21:01;101514.84;;;36.15;21.15
21547;BME280;41275;51.912;4.388;2023-06-10T10:26:26;101519.63;;;36.22;21.26
21547;BME280;41275;51.912;4.388;2023-06-10T10:31:50;101518.53;;;36.37;21.25
21547;BME280;41275;51.912;4.388;2023-06-10T10:37:12;101517.84;;;36.61;20.55
21547;BME280;41275;51.912;4.388;2023-06-10T10:42:34;101525.41;;;36.86;21.16
21547;BME280;41275;51.912;4.388;2023-06-10T10:47:56;101520.75;;;37.01;19.76
21547;BME280;41275;51.912;4.388;2023-06-10T10:53:19;101517.63;;;37.02;19.61
21547;BME280;41275;51.912;4.388;2023-06-10T10:58:41;101515.28;;;37.19;19.89
21547;BME280;41275;51.912;4.388;2023-06-10T11:04:07;101513.28;;;37.19;20.11
21547;BME280;41275;51.912;4.388;2023-06-10T11:09:28;101507.44;;;37.42;19.31
21547;BME280;41275;51.912;4.388;2023-06-10T11:14:55;101515.69;;;37.56;18.95
21547;BME280;41275;51.912;4.388;2023-06-10T11:31:51;101490.44;;;37.90;18.29
21547;BME280;41275;51.912;4.388;2023-06-10T11:37:12;101486.09;;;37.68;18.69
21547;BME280;41275;51.912;4.388;2023-06-10T11:42:38;101468.72;;;37.89;18.95
21547;BME280;41275;51.912;4.388;2023-06-10T11:48:00;101476.88;;;38.28;18.58
21547;BME280;41275;51.912;4.388;2023-06-10T11:53:21;101466.63;;;38.25;18.34
21547;BME280;41275;51.912;4.388;2023-06-10T11:58:44;101465.44;;;38.22;18.22
21547;BME280;41275;51.912;4.388;2023-06-10T12:04:10;101473.72;;;38.37;17.48
21547;BME280;41275;51.912;4.388;2023-06-10T12:09:32;101464.66;;;38.25;17.73
21547;BME280;41275;51.912;4.388;2023-06-10T12:20:32;101462.94;;;38.57;17.47
21547;BME280;41275;51.912;4.388;2023-06-10T12:25:57;101463.50;;;38.96;16.68
21547;BME280;41275;51.912;4.388;2023-06-10T12:31:20;101465.28;;;40.04;15.83
21547;BME280;41275;51.912;4.388;2023-06-10T12:36:48;101461.66;;;40.99;15.04
21547;BME280;41275;51.912;4.388;2023-06-10T12:42:09;101448.91;;;41.91;14.42
21547;BME280;41275;51.912;4.388;2023-06-10T12:47:35;101458.28;;;42.90;13.87
21547;BME280;41275;51.912;4.388;2023-06-10T12:52:59;101454.22;;;43.27;13.62
21547;BME280;41275;51.912;4.388;2023-06-10T12:58:22;101446.59;;;44.15;13.45
21547;BME280;41275;51.912;4.388;2023-06-10T13:03:43;101453.47;;;44.78;12.61
21547;BME280;41275;51.912;4.388;2023-06-10T13:09:05;101455.56;;;45.34;12.04
21547;BME280;41275;51.912;4.388;2023-06-10T13:14:27;101445.22;;;45.57;11.77
21547;BME280;41275;51.912;4.388;2023-06-10T13:19:49;101436.25;;;45.84;11.50
21547;BME280;41275;51.912;4.388;2023-06-10T13:25:11;101425.44;;;45.51;11.31
21547;BME280;41275;51.912;4.388;2023-06-10T13:30:32;101429.47;;;45.94;10.87
21547;BME280;41275;51.912;4.388;2023-06-10T13:35:53;101426.41;;;46.32;10.68
21547;BME280;41275;51.912;4.388;2023-06-10T13:41:14;101418.94;;;46.69;10.68
21547;BME280;41275;51.912;4.388;2023-06-10T13:46:36;101411.94;;;46.92;9.88
21547;BME280;41275;51.912;4.388;2023-06-10T13:51:57;101411.19;;;47.01;9.91
21547;BME280;41275;51.912;4.388;2023-06-10T13:57:18;101419.84;;;46.66;10.05
21547;BME280;41275;51.912;4.388;2023-06-10T14:02:39;101410.53;;;46.88;9.93
21547;BME280;41275;51.912;4.388;2023-06-10T14:08:01;101410.09;;;47.54;9.83
21547;BME280;41275;51.912;4.388;2023-06-10T14:13:22;101403.34;;;47.79;9.75
21547;BME280;41275;51.912;4.388;2023-06-10T14:18:43;101402.03;;;48.07;9.09
21547;BME280;41275;51.912;4.388;2023-06-10T14:24:04;101408.94;;;47.79;9.50
21547;BME280;41275;51.912;4.388;2023-06-10T14:29:26;101411.31;;;48.23;8.55
21547;BME280;41275;51.912;4.388;2023-06-10T14:34:49;101412.31;;;48.67;8.96
21547;BME280;41275;51.912;4.388;2023-06-10T14:40:11;101407.00;;;48.94;8.53
21547;BME280;41275;51.912;4.388;2023-06-10T14:45:32;101406.00;;;49.21;8.62
21547;BME280;41275;51.912;4.388;2023-06-10T14:50:53;101410.88;;;49.35;8.32
21547;BME280;41275;51.912;4.388;2023-06-10T14:56:16;101403.13;;;49.59;8.23
21547;BME280;41275;51.912;4.388;2023-06-10T15:01:37;101407.69;;;49.86;8.63
21547;BME280;41275;51.912;4.388;2023-06-10T15:06:58;101406.13;;;49.71;8.90
21547;BME280;41275;51.912;4.388;2023-06-10T15:12:19;101398.38;;;49.80;8.54
21547;BME280;41275;51.912;4.388;2023-06-10T15:17:40;101390.31;;;49.44;8.75
21547;BME280;41275;51.912;4.388;2023-06-10T15:23:02;101389.00;;;49.54;8.28
21547;BME280;41275;51.912;4.388;2023-06-10T15:28:23;101394.59;;;49.39;8.08
21547;BME280;41275;51.912;4.388;2023-06-10T15:33:47;101387.22;;;49.71;8.28
21547;BME280;41275;51.912;4.388;2023-06-10T15:39:08;101386.38;;;49.11;8.27
21547;BME280;41275;51.912;4.388;2023-06-10T15:44:30;101383.91;;;49.13;8.58
21547;BME280;41275;51.912;4.388;2023-06-10T15:49:51;101369.69;;;49.17;8.53
21547;BME280;41275;51.912;4.388;2023-06-10T15:55:17;101362.25;;;49.05;8.71
21547;BME280;41275;51.912;4.388;2023-06-10T16:00:40;101356.91;;;49.60;8.38
21547;BME280;41275;51.912;4.388;2023-06-10T16:06:01;101359.72;;;49.60;8.00
21547;BME280;41275;51.912;4.388;2023-06-10T16:11:22;101351.34;;;49.22;8.36
21547;BME280;41275;51.912;4.388;2023-06-10T16:16:44;101348.00;;;48.70;8.16
21547;BME280;41275;51.912;4.388;2023-06-10T16:22:05;101349.94;;;48.63;8.11
21547;BME280;41275;51.912;4.388;2023-06-10T16:27:26;101360.28;;;48.57;10.29
21547;BME280;41275;51.912;4.388;2023-06-10T16:32:47;101351.28;;;48.92;10.58
21547;BME280;41275;51.912;4.388;2023-06-10T16:38:08;101348.66;;;48.40;10.13
21547;BME280;41275;51.912;4.388;2023-06-10T16:43:30;101347.63;;;48.77;10.28
21547;BME280;41275;51.912;4.388;2023-06-10T16:48:51;101347.50;;;47.99;10.48
21547;BME280;41275;51.912;4.388;2023-06-10T16:54:12;101351.94;;;47.63;10.92
21547;BME280;41275;51.912;4.388;2023-06-10T16:59:33;101357.91;;;48.08;10.36
21547;BME280;41275;51.912;4.388;2023-06-10T17:04:54;101354.44;;;48.13;10.22
21547;BME280;41275;51.912;4.388;2023-06-10T17:10:16;101358.25;;;47.31;10.48
21547;BME280;41275;51.912;4.388;2023-06-10T17:15:37;101356.09;;;46.98;10.66
21547;BME280;41275;51.912;4.388;2023-06-10T17:20:58;101355.47;;;46.94;10.99
21547;BME280;41275;51.912;4.388;2023-06-10T17:26:19;101355.44;;;46.85;10.98
21547;BME280;41275;51.912;4.388;2023-06-10T17:31:41;101351.22;;;46.12;10.90
21547;BME280;41275;51.912;4.388;2023-06-10T17:37:02;101351.13;;;46.25;11.05
21547;BME280;41275;51.912;4.388;2023-06-10T17:42:23;101358.09;;;46.70;10.73
21547;BME280;41275;51.912;4.388;2023-06-10T17:47:45;101357.16;;;46.82;10.85
21547;BME280;41275;51.912;4.388;2023-06-10T17:53:06;101367.16;;;46.34;11.18
21547;BME280;41275;51.912;4.388;2023-06-10T17:58:29;101368.41;;;46.23;11.02
21547;BME280;41275;51.912;4.388;2023-06-10T18:03:50;101369.25;;;46.11;10.81
21547;BME280;41275;51.912;4.388;2023-06-10T18:09:11;101374.41;;;45.82;11.13
21547;BME280;41275;51.912;4.388;2023-06-10T18:14:34;101371.97;;;45.71;11.34
21547;BME280;41275;51.912;4.388;2023-06-10T18:19:56;101378.44;;;45.02;11.73
21547;BME280;41275;51.912;4.388;2023-06-10T18:25:17;101377.00;;;45.10;11.38
21547;BME280;41275;51.912;4.388;2023-06-10T18:30:38;101389.72;;;44.51;11.36
21547;BME280;41275;51.912;4.388;2023-06-10T18:35:59;101384.34;;;43.93;12.12
21547;BME280;41275;51.912;4.388;2023-06-10T18:41:22;101377.91;;;43.37;12.19
21547;BME280;41275;51.912;4.388;2023-06-10T18:46:43;101389.59;;;40.68;13.94
21547;BME280;41275;51.912;4.388;2023-06-10T18:52:05;101405.41;;;38.96;14.97
21547;BME280;41275;51.912;4.388;2023-06-10T18:57:27;101387.34;;;38.04;15.91
21547;BME280;41275;51.912;4.388;2023-06-10T19:02:48;101388.69;;;37.28;16.86
21547;BME280;41275;51.912;4.388;2023-06-10T19:08:09;101403.28;;;36.75;17.64
21547;BME280;41275;51.912;4.388;2023-06-10T19:13:30;101416.47;;;36.23;17.83
21547;BME280;41275;51.912;4.388;2023-06-10T19:18:52;101420.63;;;35.81;18.32
21547;BME280;41275;51.912;4.388;2023-06-10T19:24:15;101418.88;;;35.55;18.75
21547;BME280;41275;51.912;4.388;2023-06-10T19:29:36;101425.75;;;35.31;18.83
21547;BME280;41275;51.912;4.388;2023-06-10T19:34:57;101431.88;;;35.13;19.58
21547;BME280;41275;51.912;4.388;2023-06-10T19:40:18;101429.34;;;34.98;19.09
21547;BME280;41275;51.912;4.388;2023-06-10T19:45:40;101443.66;;;34.73;19.83
21547;BME280;41275;51.912;4.388;2023-06-10T19:51:01;101444.22;;;34.52;20.16
21547;BME280;41275;51.912;4.388;2023-06-10T19:56:22;101434.91;;;34.30;20.20
21547;BME280;41275;51.912;4.388;2023-06-10T20:01:43;101442.03;;;34.05;20.95
21547;BME280;41275;51.912;4.388;2023-06-10T20:07:04;101452.38;;;33.88;21.04
21547;BME280;41275;51.912;4.388;2023-06-10T20:12:26;101454.06;;;33.70;21.39
21547;BME280;41275;51.912;4.388;2023-06-10T20:17:47;101454.94;;;33.51;21.64
21547;BME280;41275;51.912;4.388;2023-06-10T20:23:08;101469.69;;;33.43;21.82
21547;BME280;41275;51.912;4.388;2023-06-10T20:28:29;101470.19;;;33.26;22.04
21547;BME280;41275;51.912;4.388;2023-06-10T20:33:51;101473.91;;;33.14;22.51
21547;BME280;41275;51.912;4.388;2023-06-10T20:39:12;101476.75;;;32.98;22.49
21547;BME280;41275;51.912;4.388;2023-06-10T20:44:33;101482.78;;;32.88;22.80
21547;BME280;41275;51.912;4.388;2023-06-10T20:49:54;101490.00;;;32.77;22.86
21547;BME280;41275;51.912;4.388;2023-06-10T20:55:16;101494.22;;;32.70;23.24
21547;BME280;41275;51.912;4.388;2023-06-10T21:00:37;101489.75;;;32.62;23.46
21547;BME280;41275;51.912;4.388;2023-06-10T21:05:58;101495.34;;;32.50;23.55
21547;BME280;41275;51.912;4.388;2023-06-10T21:11:19;101492.81;;;32.41;23.56
21547;BME280;41275;51.912;4.388;2023-06-10T21:16:41;101503.53;;;32.31;23.16
21547;BME280;41275;51.912;4.388;2023-06-10T21:22:02;101507.59;;;32.21;23.11
21547;BME280;41275;51.912;4.388;2023-06-10T21:27:23;101507.44;;;32.14;23.18
21547;BME280;41275;51.912;4.388;2023-06-10T21:32:45;101502.88;;;32.02;23.13
21547;BME280;41275;51.912;4.388;2023-06-10T21:38:07;101503.25;;;32.00;23.44
21547;BME280;41275;51.912;4.388;2023-06-10T21:43:31;101503.44;;;31.92;23.52
21547;BME280;41275;51.912;4.388;2023-06-10T21:48:53;101509.16;;;31.87;23.46
21547;BME280;41275;51.912;4.388;2023-06-10T21:54:14;101501.91;;;31.78;23.48
21547;BME280;41275;51.912;4.388;2023-06-10T21:59:35;101508.53;;;31.77;23.15
21547;BME280;41275;51.912;4.388;2023-06-10T22:04:57;101508.44;;;31.74;23.51
21547;BME280;41275;51.912;4.388;2023-06-10T22:10:18;101507.06;;;31.64;23.60
21547;BME280;41275;51.912;4.388;2023-06-10T22:15:39;101511.56;;;31.57;23.56
21547;BME280;41275;51.912;4.388;2023-06-10T22:21:01;101515.59;;;31.47;24.10
21547;BME280;41275;51.912;4.388;2023-06-10T22:26:22;101512.66;;;31.40;24.14
21547;BME280;41275;51.912;4.388;2023-06-10T22:31:44;101501.78;;;31.27;24.36
21547;BME280;41275;51.912;4.388;2023-06-10T22:37:05;101507.06;;;31.20;24.46
21547;BME280;41275;51.912;4.388;2023-06-10T22:42:26;101508.00;;;31.12;24.74
21547;BME280;41275;51.912;4.388;2023-06-10T22:47:47;101506.59;;;31.02;24.93
21547;BME280;41275;51.912;4.388;2023-06-10T22:53:08;101504.72;;;30.91;25.08
21547;BME280;41275;51.912;4.388;2023-06-10T22:58:30;101502.34;;;30.89;25.13
21547;BME280;41275;51.912;4.388;2023-06-10T23:03:51;101504.88;;;30.82;25.21
21547;BME280;41275;51.912;4.388;2023-06-10T23:09:13;101511.38;;;30.77;25.23
21547;BME280;41275;51.912;4.388;2023-06-10T23:14:34;101498.97;;;30.68;25.75
21547;BME280;41275;51.912;4.388;2023-06-10T23:19:56;101492.84;;;30.59;25.58
21547;BME280;41275;51.912;4.388;2023-06-10T23:25:19;101490.25;;;30.50;25.92
21547;BME280;41275;51.912;4.388;2023-06-10T23:30:41;101492.00;;;30.42;25.91
21547;BME280;41275;51.912;4.388;2023-06-10T23:36:03;101494.72;;;30.30;26.38
21547;BME280;41275;51.912;4.388;2023-06-10T23:41:24;101491.91;;;30.26;26.51
21547;BME280;41275;51.912;4.388;2023-06-10T23:46:45;101491.59;;;30.16;26.79
21547;BME280;41275;51.912;4.388;2023-06-10T23:52:07;101486.66;;;30.09;26.86
21547;BME280;41275;51.912;4.388;2023-06-10T23:57:28;101481.78;;;30.02;26.96
